ENKR/KKN METAR and TAF weather

Enter ICAO airport designator
Station Type Date Time Source
ENKR METAR 2020/06/06 14:20 UTC NOAA

ENKR 061420Z 01007KT 9999 SHRA FEW010CB SCT055 11/07 Q1003 RMK WIND 731FT 01009KT


Station Type Date Time Source
ENKR Decoded METAR 2020/06/06 14:20 UTC NOAA

Kirkenes Lufthavn, Norway (ENKR) 69-44N 029-54E 91M
Jun 06, 2020 - 10:20 AM EDT / 2020.06.06 1420 UTC
Wind: from the N (010 degrees) at 8 MPH (7 KT):0
Visibility: greater than 7 mile(s):0
Sky conditions: partly cloudy
Weather: rain showers; Cumulonimbus clouds observed
Temperature: 51 F (11 C)
Dew Point: 44 F (7 C)
Relative Humidity: 76%
Pressure (altimeter): 29.62 in. Hg (1003 hPa)
ob: ENKR 061420Z 01007KT 9999 SHRA FEW010CB SCT055 11/07 Q1003 RMK WIND 731FT 01009KT
cycle: 14

Station Type Date Time Source
ENKR TAF 2017/08/31 21:36 UTC NOAA

TAF TAF ENKR 312300Z 3121/0109 29005KT 9999 FEW020 SCT040

Example: see airport list